createdAt,value
2022-10-19T00:01:12.977Z,101125.03
2022-10-19T00:04:15.480Z,101118.22
2022-10-19T00:07:17.696Z,101113.97
2022-10-19T00:10:21.987Z,101115.75
2022-10-19T00:13:24.290Z,101114.06
2022-10-19T00:16:28.150Z,101096.88
2022-10-19T00:19:30.424Z,101097.00
2022-10-19T00:22:33.170Z,101102.34
2022-10-19T00:25:36.969Z,101092.84
2022-10-19T00:28:40.797Z,101087.78
2022-10-19T00:31:43.330Z,101084.41
2022-10-19T00:34:45.887Z,101089.66
2022-10-19T00:37:48.238Z,101092.25
2022-10-19T00:40:52.712Z,101071.13
2022-10-19T00:43:54.945Z,101066.06
2022-10-19T00:47:03.501Z,101061.88
2022-10-19T00:50:05.992Z,101064.47
2022-10-19T00:53:08.930Z,101058.19
2022-10-19T00:56:14.269Z,101046.06
2022-10-19T00:59:18.828Z,101040.16
2022-10-19T01:02:21.140Z,101053.03
2022-10-19T01:05:23.634Z,101049.53
2022-10-19T01:08:26.049Z,101042.59
2022-10-19T01:11:39.705Z,101032.03
2022-10-19T01:14:54.027Z,101028.31
2022-10-19T01:17:59.396Z,101028.88
2022-10-19T01:21:28.297Z,101021.78
2022-10-19T01:24:48.933Z,101016.28
2022-10-19T01:27:51.200Z,101012.66
2022-10-19T01:30:58.954Z,101009.94
2022-10-19T01:34:22.455Z,101005.56
2022-10-19T01:37:24.996Z,100998.63
2022-10-19T01:40:33.309Z,100995.09
2022-10-19T01:43:41.806Z,100994.19
2022-10-19T01:46:46.575Z,100995.88
2022-10-19T01:50:21.251Z,100994.75
2022-10-19T01:53:24.653Z,100997.25
2022-10-19T01:56:28.294Z,100995.47
2022-10-19T01:59:32.543Z,100997.84
2022-10-19T02:02:36.898Z,101003.03
2022-10-19T02:05:40.588Z,101004.84
2022-10-19T02:08:50.879Z,100991.94
2022-10-19T02:11:57.267Z,100994.88
2022-10-19T02:15:02.886Z,100989.91
2022-10-19T02:18:07.099Z,101002.16
2022-10-19T02:21:09.557Z,101002.91
2022-10-19T02:24:13.238Z,100992.56
2022-10-19T02:27:15.547Z,100998.69
2022-10-19T02:30:20.293Z,100999.53
2022-10-19T02:33:22.776Z,101002.03
2022-10-19T02:36:25.284Z,101001.97
2022-10-19T02:39:27.615Z,100997.62
2022-10-19T02:42:40.271Z,101001.69
2022-10-19T02:45:48.447Z,100999.28
2022-10-19T02:48:51.730Z,100999.13
2022-10-19T02:52:01.163Z,100989.34
2022-10-19T02:55:04.031Z,100988.63
2022-10-19T02:58:06.331Z,100987.97
2022-10-19T03:01:09.009Z,100984.69
2022-10-19T03:04:11.373Z,100982.22
2022-10-19T03:07:15.085Z,100983.97
2022-10-19T03:10:17.763Z,100993.22
2022-10-19T03:13:20.190Z,101007.94
2022-10-19T03:16:22.428Z,101000.50
2022-10-19T03:19:25.070Z,101003.66
2022-10-19T03:22:27.325Z,100989.81
2022-10-19T03:25:29.838Z,100988.03
2022-10-19T03:28:32.615Z,100984.97
2022-10-19T03:31:35.694Z,100985.44
2022-10-19T03:34:37.969Z,100985.13
2022-10-19T03:37:40.443Z,100989.50
2022-10-19T03:40:44.129Z,100990.41
2022-10-19T03:43:46.968Z,100991.12
2022-10-19T03:46:49.201Z,100993.03
2022-10-19T03:49:51.878Z,100991.41
2022-10-19T03:52:54.942Z,100993.34
2022-10-19T03:56:01.774Z,100984.69
2022-10-19T03:59:04.950Z,100989.06
2022-10-19T04:02:07.625Z,100989.91
2022-10-19T04:05:10.419Z,100989.16
2022-10-19T04:08:12.622Z,100989.97
2022-10-19T04:11:21.259Z,100988.59
2022-10-19T04:14:32.384Z,100997.44
2022-10-19T04:17:36.232Z,100995.16
2022-10-19T04:20:43.830Z,100989.28
2022-10-19T04:23:46.448Z,100997.06
2022-10-19T04:26:52.643Z,100992.78
2022-10-19T04:29:55.112Z,100995.59
2022-10-19T04:32:57.315Z,100992.94
2022-10-19T04:36:04.525Z,100998.72
2022-10-19T04:39:06.830Z,100994.50
2022-10-19T04:42:09.286Z,100996.31
2022-10-19T04:45:11.483Z,100994.66
2022-10-19T04:48:15.144Z,100987.56
2022-10-19T04:51:18.450Z,100993.88
2022-10-19T04:54:21.019Z,100997.19
2022-10-19T04:57:23.264Z,100994.53
2022-10-19T05:00:26.773Z,100998.06
2022-10-19T05:03:29.171Z,100993.91
2022-10-19T05:06:31.951Z,100994.06
2022-10-19T05:09:34.155Z,100990.66
2022-10-19T05:12:36.657Z,101002.19
2022-10-19T05:15:38.914Z,101009.47
2022-10-19T05:18:41.618Z,101000.19
2022-10-19T05:21:43.798Z,100999.47
2022-10-19T05:24:46.304Z,100999.56
2022-10-19T05:27:52.625Z,101016.56
2022-10-19T05:31:28.568Z,101013.81
2022-10-19T05:34:30.768Z,101017.31
2022-10-19T05:37:33.446Z,101018.84
2022-10-19T05:40:36.239Z,101029.25
2022-10-19T05:43:39.485Z,101032.63
2022-10-19T05:46:41.819Z,101038.50
2022-10-19T05:49:44.337Z,101037.69
2022-10-19T05:52:46.616Z,101044.44
2022-10-19T05:55:49.168Z,101040.03
2022-10-19T05:58:51.815Z,101038.31
2022-10-19T06:01:54.293Z,101043.25
2022-10-19T06:04:56.816Z,101047.59
2022-10-19T06:07:59.079Z,101051.75
2022-10-19T06:11:09.360Z,101045.56
2022-10-19T06:14:12.893Z,101041.00
2022-10-19T06:17:16.163Z,101071.34
2022-10-19T06:20:20.063Z,101067.47
2022-10-19T06:23:22.585Z,101068.69
2022-10-19T06:26:25.537Z,101063.34
2022-10-19T06:29:28.418Z,101079.56
2022-10-19T06:32:30.897Z,101074.00
2022-10-19T06:35:33.802Z,101083.41
2022-10-19T06:38:36.293Z,101082.94
2022-10-19T06:41:38.778Z,101090.44
2022-10-19T06:44:44.164Z,101087.16
2022-10-19T06:51:00.606Z,101099.16
2022-10-19T06:54:03.213Z,101100.31
2022-10-19T06:57:05.477Z,101107.66
2022-10-19T07:00:09.170Z,101109.41
2022-10-19T07:03:11.542Z,101118.81
2022-10-19T07:06:14.509Z,101118.50
2022-10-19T07:09:16.922Z,101119.44
2022-10-19T07:12:19.666Z,101125.47
2022-10-19T07:15:21.954Z,101135.25
2022-10-19T07:18:24.818Z,101134.28
2022-10-19T07:21:27.135Z,101138.13
2022-10-19T07:24:29.687Z,101146.38
2022-10-19T07:27:37.374Z,101148.53
2022-10-19T07:30:41.958Z,101156.72
2022-10-19T07:33:44.849Z,101158.16
2022-10-19T07:36:48.195Z,101152.59
2022-10-19T07:39:50.633Z,101158.81
2022-10-19T07:42:53.509Z,101148.31
2022-10-19T07:46:03.106Z,101164.31
2022-10-19T07:49:06.997Z,101149.56
2022-10-19T07:52:09.363Z,101146.38
2022-10-19T07:55:11.953Z,101146.00
2022-10-19T07:58:14.500Z,101144.66
2022-10-19T08:01:18.761Z,101145.06
2022-10-19T08:07:43.447Z,101143.41
2022-10-19T08:10:50.243Z,101141.38
2022-10-19T08:13:53.312Z,101133.03
2022-10-19T08:16:55.867Z,101138.00
2022-10-19T08:19:58.077Z,101133.62
2022-10-19T08:23:02.095Z,101137.94
2022-10-19T08:26:04.416Z,101126.13
2022-10-19T08:29:17.828Z,101142.63
2022-10-19T08:32:20.250Z,101136.59
2022-10-19T08:35:22.861Z,101131.31
2022-10-19T08:38:25.279Z,101137.88
2022-10-19T08:41:54.329Z,101139.94
2022-10-19T08:44:56.547Z,101143.03
2022-10-19T08:48:18.326Z,101146.47
2022-10-19T08:51:21.018Z,101143.19
2022-10-19T08:54:24.755Z,101144.81
2022-10-19T08:57:36.667Z,101141.38
2022-10-19T09:00:47.398Z,101140.91
2022-10-19T09:04:04.376Z,101136.53
2022-10-19T09:07:10.021Z,101142.50
2022-10-19T09:10:25.507Z,101137.59
2022-10-19T09:13:41.723Z,101135.25
2022-10-19T09:16:59.931Z,101131.41
2022-10-19T09:20:16.692Z,101129.09
2022-10-19T09:23:21.810Z,101140.38
2022-10-19T09:26:36.706Z,101144.12
2022-10-19T09:29:42.099Z,101139.22
2022-10-19T09:32:45.005Z,101129.13
2022-10-19T09:35:48.121Z,101133.34
2022-10-19T09:38:51.445Z,101138.31
2022-10-19T09:41:57.972Z,101138.66
2022-10-19T09:45:01.909Z,101137.47
2022-10-19T09:48:14.079Z,101139.00
2022-10-19T09:51:17.124Z,101134.25
2022-10-19T09:54:23.349Z,101140.97
2022-10-19T09:57:25.983Z,101133.31
2022-10-19T10:00:32.247Z,101137.88
2022-10-19T10:03:39.336Z,101129.97
2022-10-19T10:06:42.893Z,101127.78
2022-10-19T10:09:45.761Z,101115.88
2022-10-19T10:12:48.096Z,101116.47
2022-10-19T10:15:54.732Z,101119.62
2022-10-19T10:18:59.416Z,101112.16
2022-10-19T10:22:02.955Z,101102.25
2022-10-19T10:25:12.259Z,101098.28
2022-10-19T10:28:22.380Z,101100.38
2022-10-19T10:31:26.365Z,101092.81
2022-10-19T10:34:37.951Z,101089.03
2022-10-19T10:37:48.082Z,101086.78
2022-10-19T10:41:01.244Z,101089.88
2022-10-19T10:44:07.203Z,101082.78
2022-10-19T10:47:13.602Z,101079.41
2022-10-19T10:50:21.168Z,101087.22
2022-10-19T10:53:35.733Z,101082.59
2022-10-19T10:56:40.858Z,101078.53
2022-10-19T10:59:50.285Z,101064.44
2022-10-19T11:03:04.537Z,101058.19
2022-10-19T11:06:08.335Z,101049.50
2022-10-19T11:09:17.653Z,101047.06
2022-10-19T11:12:29.519Z,101048.94
2022-10-19T11:15:46.836Z,101046.28
2022-10-19T11:19:00.651Z,101037.06
2022-10-19T11:22:09.326Z,101037.53
2022-10-19T11:25:21.203Z,101046.78
2022-10-19T11:28:32.566Z,101041.00
2022-10-19T11:31:51.283Z,101029.84
2022-10-19T11:35:19.630Z,101030.09
2022-10-19T11:38:31.121Z,101024.34
2022-10-19T11:41:39.915Z,101021.69
2022-10-19T11:44:51.729Z,101028.06
2022-10-19T11:48:03.545Z,101042.53
2022-10-19T11:51:21.070Z,101037.41
2022-10-19T11:54:30.407Z,101032.41
2022-10-19T11:57:44.987Z,101016.59
2022-10-19T12:01:00.380Z,101020.19
2022-10-19T12:04:12.003Z,101019.22
2022-10-19T12:07:20.342Z,101018.69
2022-10-19T12:10:42.727Z,101016.22
2022-10-19T12:13:50.865Z,101018.38
2022-10-19T12:16:55.402Z,101011.13
2022-10-19T12:20:03.404Z,101002.78
2022-10-19T12:23:24.805Z,101000.94
2022-10-19T12:26:29.868Z,101000.41
2022-10-19T12:29:34.120Z,101000.31
2022-10-19T12:33:02.750Z,100991.69
2022-10-19T12:36:17.593Z,100998.00
2022-10-19T12:39:39.258Z,100992.25
2022-10-19T12:42:51.369Z,100989.13
2022-10-19T12:46:13.859Z,100985.34
2022-10-19T12:49:28.830Z,100981.22
2022-10-19T12:52:34.620Z,100983.22
2022-10-19T12:55:38.765Z,100975.00
2022-10-19T12:58:46.720Z,100976.34
2022-10-19T13:01:51.173Z,100971.00
2022-10-19T13:04:54.067Z,100978.78
2022-10-19T13:07:56.760Z,100979.22
2022-10-19T13:11:07.777Z,100962.94
2022-10-19T13:14:19.463Z,100970.81
2022-10-19T13:17:34.599Z,100963.34
2022-10-19T13:23:46.665Z,100962.50
2022-10-19T13:27:09.122Z,100965.41
2022-10-19T13:30:31.959Z,100973.66
2022-10-19T13:33:35.084Z,100970.69
2022-10-19T13:36:40.288Z,100975.19
2022-10-19T13:39:42.832Z,100979.00
2022-10-19T13:42:45.189Z,100985.03
2022-10-19T13:46:02.751Z,100978.16
2022-10-19T13:49:18.327Z,100977.84
2022-10-19T13:52:20.780Z,100987.50
2022-10-19T13:55:46.465Z,100984.28
2022-10-19T13:59:09.806Z,100985.47
2022-10-19T14:02:30.391Z,100982.91
2022-10-19T14:05:53.657Z,100972.28
2022-10-19T14:09:05.289Z,100975.94
2022-10-19T14:12:12.039Z,100977.47
2022-10-19T14:15:20.968Z,100972.66
2022-10-19T14:18:30.940Z,100984.69
2022-10-19T14:21:34.511Z,100972.97
2022-10-19T14:24:37.314Z,100969.25
2022-10-19T14:27:39.549Z,100969.56
2022-10-19T14:30:43.289Z,100977.72
2022-10-19T14:33:47.935Z,100972.94
2022-10-19T14:36:51.398Z,100976.91
2022-10-19T14:39:58.253Z,100984.28
2022-10-19T14:43:01.319Z,100969.75
2022-10-19T14:46:06.489Z,100975.41
2022-10-19T14:49:11.147Z,100979.19
2022-10-19T14:52:17.694Z,100978.50
2022-10-19T14:55:21.100Z,100963.72
2022-10-19T14:58:24.944Z,100970.22
2022-10-19T15:01:29.293Z,100967.28
2022-10-19T15:04:34.344Z,100970.47
2022-10-19T15:07:38.194Z,100971.00
2022-10-19T15:10:42.869Z,100976.19
2022-10-19T15:13:45.590Z,100973.09
2022-10-19T15:16:58.521Z,100967.34
2022-10-19T15:20:16.759Z,100971.03
2022-10-19T15:23:34.262Z,100962.63
2022-10-19T15:26:37.932Z,100971.12
2022-10-19T15:29:40.350Z,100978.63
2022-10-19T15:32:43.271Z,100978.41
2022-10-19T15:35:45.646Z,100975.38
2022-10-19T15:39:06.117Z,100970.28
2022-10-19T15:42:22.957Z,100974.28
2022-10-19T15:45:36.222Z,100972.97
2022-10-19T15:48:41.609Z,100976.97
2022-10-19T15:51:47.596Z,100986.50
2022-10-19T15:54:50.907Z,100996.25
2022-10-19T15:57:58.475Z,100999.94
2022-10-19T16:01:01.945Z,100993.84
2022-10-19T16:04:04.569Z,100988.44
2022-10-19T16:07:07.183Z,100996.97
2022-10-19T16:10:17.894Z,100990.53
2022-10-19T16:13:20.381Z,101007.59
2022-10-19T16:16:27.656Z,101016.50
2022-10-19T16:19:31.624Z,101022.84
2022-10-19T16:22:35.436Z,101027.91
2022-10-19T16:25:37.910Z,101035.91
2022-10-19T16:28:40.878Z,101049.34
2022-10-19T16:31:43.346Z,101047.34
2022-10-19T16:34:46.357Z,101044.28
2022-10-19T16:37:48.840Z,101031.25
2022-10-19T16:40:52.309Z,101025.25
2022-10-19T16:43:55.531Z,101020.13
2022-10-19T16:46:58.490Z,101022.84
2022-10-19T16:50:02.334Z,101053.69
2022-10-19T16:53:06.727Z,101060.25
2022-10-19T16:56:10.710Z,101074.56
2022-10-19T16:59:15.568Z,101075.25
2022-10-19T17:02:18.515Z,101085.88
2022-10-19T17:05:22.424Z,101081.41
2022-10-19T17:08:36.608Z,101084.53
2022-10-19T17:11:42.072Z,101087.31
2022-10-19T17:14:44.552Z,101093.50
2022-10-19T17:17:47.809Z,101097.22
2022-10-19T17:20:51.414Z,101094.75
2022-10-19T17:23:56.052Z,101091.53
2022-10-19T17:27:00.556Z,101094.37
2022-10-19T17:30:03.669Z,101098.72
2022-10-19T17:33:06.473Z,101091.19
2022-10-19T17:36:10.961Z,101094.91
2022-10-19T17:39:18.599Z,101096.81
2022-10-19T17:42:21.576Z,101098.72
2022-10-19T17:45:25.192Z,101105.50
2022-10-19T17:48:28.046Z,101108.56
2022-10-19T17:51:31.620Z,101113.97
2022-10-19T17:54:43.481Z,101114.16
2022-10-19T17:57:56.961Z,101114.53
2022-10-19T18:01:00.954Z,101119.81
2022-10-19T18:04:04.180Z,101108.56
2022-10-19T18:07:06.915Z,101119.19
2022-10-19T18:10:10.265Z,101117.06
2022-10-19T18:13:15.916Z,101105.22
2022-10-19T18:16:21.601Z,101096.53
2022-10-19T18:19:25.413Z,101123.28
2022-10-19T18:22:31.347Z,101126.16
2022-10-19T18:25:53.498Z,101134.63
2022-10-19T18:28:57.931Z,101147.28
2022-10-19T18:32:01.523Z,101160.13
2022-10-19T18:35:05.255Z,101162.81
2022-10-19T18:38:08.963Z,101162.09
2022-10-19T18:44:14.676Z,101163.28
2022-10-19T18:47:17.479Z,101172.44
2022-10-19T18:50:20.805Z,101173.91
2022-10-19T18:53:24.256Z,101168.16
2022-10-19T18:56:26.954Z,101165.72
2022-10-19T18:59:29.830Z,101184.22
2022-10-19T19:02:46.581Z,101182.63
2022-10-19T19:05:50.421Z,101189.69
2022-10-19T19:08:57.238Z,101201.81
2022-10-19T19:12:00.170Z,101206.37
2022-10-19T19:15:02.927Z,101208.50
2022-10-19T19:18:05.815Z,101200.69
2022-10-19T19:21:18.342Z,101187.47
2022-10-19T19:24:22.092Z,101186.50
2022-10-19T19:27:29.453Z,101171.41
2022-10-19T19:30:39.941Z,101184.41
2022-10-19T19:33:43.315Z,101195.22
2022-10-19T19:36:48.507Z,101198.28
2022-10-19T19:39:52.157Z,101196.81
2022-10-19T19:42:55.777Z,101188.25
2022-10-19T19:46:01.934Z,101208.09
2022-10-19T19:49:07.735Z,101219.22
2022-10-19T19:52:10.318Z,101233.81
2022-10-19T19:55:13.173Z,101243.59
2022-10-19T19:58:16.963Z,101233.50
2022-10-19T20:01:20.779Z,101224.13
2022-10-19T20:04:23.581Z,101226.03
2022-10-19T20:07:27.066Z,101233.13
2022-10-19T20:10:30.652Z,101236.59
2022-10-19T20:13:34.457Z,101234.00
2022-10-19T20:16:37.476Z,101230.31
2022-10-19T20:19:40.086Z,101242.81
2022-10-19T20:22:45.434Z,101250.66
2022-10-19T20:25:48.039Z,101252.72
2022-10-19T20:28:52.777Z,101249.38
2022-10-19T20:31:55.789Z,101264.06
2022-10-19T20:34:58.623Z,101260.59
2022-10-19T20:38:01.212Z,101258.13
2022-10-19T20:41:07.801Z,101267.63
2022-10-19T20:44:11.146Z,101265.88
2022-10-19T20:47:14.069Z,101272.06
2022-10-19T20:50:20.574Z,101272.06
2022-10-19T20:53:24.711Z,101275.62
2022-10-19T20:56:29.000Z,101274.03
2022-10-19T20:59:33.287Z,101279.09
2022-10-19T21:02:35.908Z,101276.38
2022-10-19T21:05:38.827Z,101272.06
2022-10-19T21:08:41.493Z,101275.53
2022-10-19T21:11:44.785Z,101280.00
2022-10-19T21:14:46.974Z,101293.09
2022-10-19T21:17:49.465Z,101290.41
2022-10-19T21:20:52.023Z,101283.72
2022-10-19T21:24:04.453Z,101282.97
2022-10-19T21:27:07.568Z,101282.13
2022-10-19T21:30:10.494Z,101290.09
2022-10-19T21:33:12.723Z,101294.59
2022-10-19T21:36:15.425Z,101300.69
2022-10-19T21:39:18.087Z,101292.97
2022-10-19T21:42:20.584Z,101300.75
2022-10-19T21:45:30.381Z,101301.63
2022-10-19T21:48:34.056Z,101302.50
2022-10-19T21:51:39.219Z,101300.00
2022-10-19T21:54:41.827Z,101299.16
2022-10-19T21:57:44.009Z,101306.03
2022-10-19T22:00:47.288Z,101316.41
2022-10-19T22:03:49.960Z,101313.81
2022-10-19T22:06:52.158Z,101309.56
2022-10-19T22:09:55.014Z,101313.81
2022-10-19T22:12:57.435Z,101311.19
2022-10-19T22:16:10.980Z,101312.00
2022-10-19T22:19:13.689Z,101309.53
2022-10-19T22:22:16.639Z,101304.44
2022-10-19T22:25:18.926Z,101299.38
2022-10-19T22:28:21.491Z,101301.22
2022-10-19T22:31:24.380Z,101306.47
2022-10-19T22:34:26.864Z,101303.97
2022-10-19T22:37:29.075Z,101300.59
2022-10-19T22:40:33.362Z,101301.50
2022-10-19T22:43:35.817Z,101305.72
2022-10-19T22:46:38.392Z,101309.13
2022-10-19T22:49:40.584Z,101300.47
2022-10-19T22:52:43.117Z,101304.84
2022-10-19T22:55:45.400Z,101308.47
2022-10-19T22:58:48.060Z,101308.44
2022-10-19T23:01:50.630Z,101305.00
2022-10-19T23:04:53.222Z,101307.69
2022-10-19T23:07:55.495Z,101313.78
2022-10-19T23:10:58.166Z,101311.25
2022-10-19T23:14:00.433Z,101310.41
2022-10-19T23:17:03.009Z,101307.06
2022-10-19T23:20:06.020Z,101324.41
2022-10-19T23:23:09.136Z,101325.37
2022-10-19T23:26:13.333Z,101326.16
2022-10-19T23:29:15.956Z,101336.56
2022-10-19T23:32:18.291Z,101339.16
2022-10-19T23:35:20.908Z,101342.63
2022-10-19T23:38:23.227Z,101343.47
2022-10-19T23:41:25.816Z,101340.12
2022-10-19T23:44:28.136Z,101340.19
2022-10-19T23:47:30.665Z,101346.28
2022-10-19T23:50:32.890Z,101340.31
2022-10-19T23:53:40.015Z,101347.06
2022-10-19T23:56:43.409Z,101353.16
2022-10-19T23:59:46.212Z,101354.91
